createdAt,value
2019-06-26T00:00:16.392Z,25.70
2019-06-26T00:01:25.575Z,25.70
2019-06-26T00:02:32.861Z,25.70
2019-06-26T00:03:40.941Z,25.60
2019-06-26T00:04:48.152Z,25.60
2019-06-26T00:05:56.145Z,25.60
2019-06-26T00:07:03.343Z,25.60
2019-06-26T00:08:11.351Z,25.60
2019-06-26T00:09:18.652Z,25.60
2019-06-26T00:10:26.653Z,25.60
2019-06-26T00:11:33.878Z,25.50
2019-06-26T00:12:41.884Z,25.50
2019-06-26T00:13:49.116Z,25.60
2019-06-26T00:14:57.131Z,25.50
2019-06-26T00:16:04.384Z,25.50
2019-06-26T00:17:12.413Z,25.50
2019-06-26T00:18:19.609Z,25.50
2019-06-26T00:19:28.602Z,25.50
2019-06-26T00:20:36.993Z,25.40
2019-06-26T00:21:44.999Z,25.40
2019-06-26T00:22:52.209Z,25.40
2019-06-26T00:24:00.238Z,25.30
2019-06-26T00:25:07.941Z,25.30
2019-06-26T00:30:07.385Z,25.30
2019-06-26T00:31:16.495Z,25.30
2019-06-26T00:32:24.659Z,25.20
2019-06-26T00:33:33.559Z,25.20
2019-06-26T00:34:41.688Z,25.20
2019-06-26T00:35:50.532Z,25.10
2019-06-26T00:36:57.774Z,25.10
2019-06-26T00:38:06.846Z,25.10
2019-06-26T00:39:14.059Z,25.10
2019-06-26T00:40:22.076Z,25.00
2019-06-26T00:41:29.288Z,25.10
2019-06-26T00:42:37.323Z,25.00
2019-06-26T00:43:44.520Z,25.00
2019-06-26T00:44:52.589Z,25.00
2019-06-26T00:46:00.846Z,25.00
2019-06-26T00:47:08.928Z,25.00
2019-06-26T00:48:16.171Z,25.00
2019-06-26T00:49:24.232Z,25.00
2019-06-26T00:50:31.443Z,24.90
2019-06-26T00:51:39.451Z,25.00
2019-06-26T00:52:46.660Z,24.90
2019-06-26T00:53:54.668Z,24.90
2019-06-26T00:55:01.883Z,24.90
2019-06-26T00:56:09.966Z,24.90
2019-06-26T00:57:18.221Z,24.90
2019-06-26T00:58:26.252Z,24.80
2019-06-26T00:59:33.427Z,24.80
2019-06-26T01:00:48.458Z,24.80
2019-06-26T01:01:55.704Z,24.80
2019-06-26T01:03:03.755Z,24.80
2019-06-26T01:04:15.467Z,24.80
2019-06-26T01:05:23.474Z,24.80
2019-06-26T01:06:45.971Z,24.80
2019-06-26T01:07:53.965Z,24.80
2019-06-26T01:09:01.176Z,24.70
2019-06-26T01:10:13.364Z,24.80
2019-06-26T01:11:21.760Z,24.80
2019-06-26T01:12:29.757Z,24.70
2019-06-26T01:13:36.991Z,24.70
2019-06-26T01:14:45.004Z,24.70
2019-06-26T01:15:52.223Z,24.70
2019-06-26T01:17:00.259Z,24.70
2019-06-26T01:18:07.535Z,24.60
2019-06-26T01:19:15.748Z,24.60
2019-06-26T01:20:23.280Z,24.60
2019-06-26T01:21:31.797Z,24.60
2019-06-26T01:22:39.076Z,24.60
2019-06-26T01:23:47.108Z,24.60
2019-06-26T01:24:54.352Z,24.60
2019-06-26T01:26:02.405Z,24.60
2019-06-26T01:27:09.596Z,24.60
2019-06-26T01:28:17.618Z,24.60
2019-06-26T01:29:24.847Z,24.60
2019-06-26T01:30:32.838Z,24.60
2019-06-26T01:31:40.076Z,24.50
2019-06-26T01:32:48.067Z,24.50
2019-06-26T01:33:55.276Z,24.50
2019-06-26T01:35:03.270Z,24.50
2019-06-26T01:36:10.529Z,24.50
2019-06-26T01:37:18.488Z,24.50
2019-06-26T01:38:25.698Z,24.50
2019-06-26T01:39:33.716Z,24.50
2019-06-26T01:40:40.939Z,24.50
2019-06-26T01:41:48.937Z,24.50
2019-06-26T01:42:56.131Z,24.50
2019-06-26T01:44:14.292Z,24.50
2019-06-26T01:45:14.286Z,24.50
2019-06-26T01:46:22.293Z,24.50
2019-06-26T01:47:29.517Z,24.40
2019-06-26T01:48:37.524Z,24.40
2019-06-26T01:49:44.736Z,24.40
2019-06-26T01:50:52.725Z,24.40
2019-06-26T01:51:59.935Z,24.40
2019-06-26T01:53:07.948Z,24.40
2019-06-26T01:54:15.152Z,24.40
2019-06-26T01:55:23.144Z,24.40
2019-06-26T01:56:30.367Z,24.40
2019-06-26T01:57:38.377Z,24.40
2019-06-26T01:58:45.586Z,24.40
2019-06-26T01:59:53.585Z,24.30
2019-06-26T02:01:00.801Z,24.30
2019-06-26T02:02:08.883Z,24.30
2019-06-26T02:03:16.167Z,24.30
2019-06-26T02:04:24.189Z,24.30
2019-06-26T02:05:31.440Z,24.30
2019-06-26T02:06:39.438Z,24.30
2019-06-26T02:07:46.647Z,24.30
2019-06-26T02:08:54.637Z,24.30
2019-06-26T02:10:01.863Z,24.30
2019-06-26T02:11:10.142Z,24.20
2019-06-26T02:12:17.365Z,24.20
2019-06-26T02:13:25.490Z,24.20
2019-06-26T02:14:33.316Z,24.20
2019-06-26T02:15:41.321Z,24.20
2019-06-26T02:16:48.550Z,24.20
2019-06-26T02:17:56.568Z,24.20
2019-06-26T02:19:04.998Z,24.20
2019-06-26T02:20:13.284Z,24.20
2019-06-26T02:21:20.510Z,24.10
2019-06-26T02:22:28.530Z,24.10
2019-06-26T02:23:35.785Z,24.10
2019-06-26T02:24:43.776Z,24.10
2019-06-26T02:25:51.023Z,24.10
2019-06-26T02:26:59.120Z,24.10
2019-06-26T02:28:06.323Z,24.10
2019-06-26T02:29:14.360Z,24.10
2019-06-26T02:30:22.081Z,24.10
2019-06-26T02:31:30.072Z,24.10
2019-06-26T02:32:37.287Z,24.10
2019-06-26T02:33:45.294Z,24.10
2019-06-26T02:34:52.512Z,24.10
2019-06-26T02:36:00.508Z,24.10
2019-06-26T02:37:07.700Z,24.00
2019-06-26T02:38:15.693Z,24.10
2019-06-26T02:39:22.901Z,24.00
2019-06-26T02:40:30.969Z,24.00
2019-06-26T02:41:38.239Z,24.10
2019-06-26T02:42:46.245Z,24.10
2019-06-26T02:43:53.461Z,24.10
2019-06-26T02:45:01.461Z,24.00
2019-06-26T02:46:08.701Z,24.00
2019-06-26T02:47:20.076Z,24.00
2019-06-26T02:48:25.687Z,24.00
2019-06-26T02:49:33.683Z,24.00
2019-06-26T02:50:40.918Z,24.00
2019-06-26T02:51:48.947Z,24.00
2019-06-26T02:52:56.239Z,24.00
2019-06-26T02:54:04.261Z,24.00
2019-06-26T02:55:11.686Z,24.00
2019-06-26T02:56:19.687Z,23.90
2019-06-26T02:57:26.871Z,23.90
2019-06-26T02:58:34.897Z,23.90
2019-06-26T02:59:42.098Z,23.90
2019-06-26T03:00:50.106Z,23.90
2019-06-26T03:01:57.327Z,23.90
2019-06-26T03:03:05.374Z,23.90
2019-06-26T03:04:12.592Z,23.90
2019-06-26T03:05:20.599Z,23.90
2019-06-26T03:06:27.873Z,23.90
2019-06-26T03:07:35.921Z,23.90
2019-06-26T03:08:43.171Z,23.80
2019-06-26T03:09:51.171Z,23.90
2019-06-26T03:10:58.389Z,23.80
2019-06-26T03:12:06.396Z,23.80
2019-06-26T03:13:13.603Z,23.80
2019-06-26T03:14:21.640Z,23.80
2019-06-26T03:15:28.880Z,23.80
2019-06-26T03:16:36.976Z,23.70
2019-06-26T03:17:54.785Z,23.70
2019-06-26T03:18:53.892Z,23.70
2019-06-26T03:20:01.142Z,23.70
2019-06-26T03:21:10.304Z,23.70
2019-06-26T03:22:17.516Z,23.70
2019-06-26T03:23:25.561Z,23.60
2019-06-26T03:24:32.747Z,23.60
2019-06-26T03:25:40.828Z,23.60
2019-06-26T03:26:48.041Z,23.60
2019-06-26T03:27:56.328Z,23.60
2019-06-26T03:29:03.526Z,23.60
2019-06-26T03:30:12.543Z,23.60
2019-06-26T03:31:19.765Z,23.50
2019-06-26T03:32:27.786Z,23.60
2019-06-26T03:33:35.013Z,23.60
2019-06-26T03:34:43.016Z,23.50
2019-06-26T03:35:50.238Z,23.50
2019-06-26T03:36:58.260Z,23.60
2019-06-26T03:38:05.545Z,23.50
2019-06-26T03:39:13.534Z,23.50
2019-06-26T03:40:20.851Z,23.50
2019-06-26T03:41:28.844Z,23.50
2019-06-26T03:42:36.219Z,23.50
2019-06-26T03:43:44.259Z,23.50
2019-06-26T03:44:51.447Z,23.50
2019-06-26T03:45:59.483Z,23.50
2019-06-26T03:47:06.699Z,23.50
2019-06-26T03:48:14.688Z,23.50
2019-06-26T03:49:21.899Z,23.50
2019-06-26T03:50:29.908Z,23.50
2019-06-26T03:51:37.144Z,23.50
2019-06-26T03:52:45.166Z,23.50
2019-06-26T03:53:52.421Z,23.50
2019-06-26T03:55:00.432Z,23.50
2019-06-26T03:56:07.697Z,23.50
2019-06-26T03:57:15.732Z,23.50
2019-06-26T03:58:22.959Z,23.50
2019-06-26T03:59:30.984Z,23.50
2019-06-26T04:00:41.737Z,23.50
2019-06-26T04:01:49.798Z,23.50
2019-06-26T04:02:57.018Z,23.50
2019-06-26T04:04:05.030Z,23.50
2019-06-26T04:05:12.224Z,23.50
2019-06-26T04:06:20.216Z,23.50
2019-06-26T04:07:27.438Z,23.50
2019-06-26T04:08:35.443Z,23.50
2019-06-26T04:09:42.659Z,23.50
2019-06-26T04:10:50.664Z,23.50
2019-06-26T04:11:57.927Z,23.50
2019-06-26T04:13:07.549Z,23.50
2019-06-26T04:14:14.766Z,23.50
2019-06-26T04:15:22.766Z,23.40
2019-06-26T04:16:30.001Z,23.50
2019-06-26T04:17:38.982Z,23.50
2019-06-26T04:18:46.203Z,23.50
2019-06-26T04:19:54.229Z,23.50
2019-06-26T04:21:01.527Z,23.50
2019-06-26T04:22:09.550Z,23.50
2019-06-26T04:23:16.852Z,23.40
2019-06-26T04:24:24.855Z,23.40
2019-06-26T04:25:32.079Z,23.50
2019-06-26T04:26:40.099Z,23.50
2019-06-26T04:27:47.332Z,23.40
2019-06-26T04:28:55.331Z,23.40
2019-06-26T04:30:02.638Z,23.50
2019-06-26T04:31:23.154Z,23.50
2019-06-26T04:32:30.381Z,23.50
2019-06-26T04:33:38.402Z,23.50
2019-06-26T04:34:45.595Z,23.50
2019-06-26T04:35:53.603Z,23.40
2019-06-26T04:37:00.828Z,23.50
2019-06-26T04:38:08.855Z,23.50
2019-06-26T04:39:16.060Z,23.50
2019-06-26T04:40:24.173Z,23.40
2019-06-26T04:41:31.402Z,23.50
2019-06-26T04:42:39.441Z,23.50
2019-06-26T04:43:46.736Z,23.50
2019-06-26T04:44:54.742Z,23.50
2019-06-26T04:46:01.957Z,23.50
2019-06-26T04:47:09.971Z,23.60
2019-06-26T04:48:17.171Z,23.60
2019-06-26T04:49:25.397Z,23.50
2019-06-26T04:50:32.584Z,23.60
2019-06-26T04:51:40.588Z,23.60
2019-06-26T04:52:47.814Z,23.60
2019-06-26T04:53:55.896Z,23.60
2019-06-26T04:55:03.214Z,23.60
2019-06-26T04:56:11.211Z,23.60
2019-06-26T04:57:19.390Z,23.60
2019-06-26T04:58:27.428Z,23.60
2019-06-26T04:59:34.657Z,23.70
2019-06-26T05:00:43.650Z,23.70
2019-06-26T05:01:50.896Z,23.70
2019-06-26T05:03:00.507Z,23.70
2019-06-26T05:04:07.747Z,23.70
2019-06-26T05:05:16.335Z,23.70
2019-06-26T05:06:23.564Z,23.70
2019-06-26T05:07:31.585Z,23.80
2019-06-26T05:08:38.800Z,23.80
2019-06-26T05:09:46.830Z,23.80
2019-06-26T05:10:54.044Z,23.80
2019-06-26T05:12:02.057Z,23.90
2019-06-26T05:13:09.273Z,23.90
2019-06-26T05:14:17.297Z,23.90
2019-06-26T05:15:24.600Z,23.90
2019-06-26T05:16:32.586Z,23.90
2019-06-26T05:17:39.830Z,24.00
2019-06-26T05:18:48.928Z,24.00
2019-06-26T05:19:56.126Z,24.00
2019-06-26T05:21:04.179Z,24.00
2019-06-26T05:22:11.417Z,24.00
2019-06-26T05:23:19.422Z,24.00
2019-06-26T05:24:26.650Z,24.10
2019-06-26T05:25:34.644Z,24.10
2019-06-26T05:26:41.852Z,24.10
2019-06-26T05:27:49.877Z,24.10
2019-06-26T05:28:57.091Z,24.10
2019-06-26T05:30:06.394Z,24.10
2019-06-26T05:31:13.606Z,24.20
2019-06-26T05:32:21.628Z,24.20
2019-06-26T05:33:28.889Z,24.20
2019-06-26T05:34:36.938Z,24.20
2019-06-26T05:35:44.190Z,24.20
2019-06-26T05:36:52.210Z,24.20
2019-06-26T05:37:59.438Z,24.30
2019-06-26T05:39:08.823Z,24.30
2019-06-26T05:40:16.456Z,24.30
2019-06-26T05:41:24.445Z,24.40
2019-06-26T05:42:31.656Z,24.40
2019-06-26T05:43:39.859Z,24.40
2019-06-26T05:44:47.069Z,24.40
2019-06-26T05:45:55.060Z,24.40
2019-06-26T05:47:02.275Z,24.50
2019-06-26T05:48:10.278Z,24.50
2019-06-26T05:49:17.504Z,24.50
2019-06-26T05:50:25.899Z,24.60
2019-06-26T05:51:33.116Z,24.60
2019-06-26T05:52:42.729Z,24.60
2019-06-26T05:53:50.118Z,24.60
2019-06-26T05:54:58.117Z,24.70
2019-06-26T05:56:05.569Z,24.70
2019-06-26T05:57:13.577Z,24.80
2019-06-26T05:58:20.794Z,24.80
2019-06-26T05:59:28.847Z,24.80
2019-06-26T06:00:36.004Z,24.80
2019-06-26T06:01:44.012Z,24.80
2019-06-26T06:02:53.834Z,24.90
2019-06-26T06:04:00.936Z,24.90
2019-06-26T06:05:08.706Z,24.90
2019-06-26T06:06:17.234Z,25.00
2019-06-26T06:07:24.609Z,25.10
2019-06-26T06:08:32.640Z,25.10
2019-06-26T06:09:39.827Z,25.10
2019-06-26T06:10:47.938Z,25.10
2019-06-26T06:11:55.149Z,25.20
2019-06-26T06:13:03.171Z,25.20
2019-06-26T06:14:10.395Z,25.20
2019-06-26T06:15:19.123Z,25.20
2019-06-26T06:16:27.941Z,25.30
2019-06-26T06:17:35.959Z,25.30
2019-06-26T06:18:43.190Z,25.40
2019-06-26T06:19:51.222Z,25.40
2019-06-26T06:20:58.570Z,25.40
2019-06-26T06:22:06.694Z,25.50
2019-06-26T06:23:13.908Z,25.50
2019-06-26T06:24:21.930Z,25.50
2019-06-26T06:25:29.123Z,25.50
2019-06-26T06:26:37.116Z,25.60
2019-06-26T06:27:44.328Z,25.60
2019-06-26T06:28:52.365Z,25.60
2019-06-26T06:29:59.712Z,25.70
2019-06-26T06:31:07.810Z,25.70
2019-06-26T06:32:15.065Z,25.70
2019-06-26T06:33:23.083Z,25.70
2019-06-26T06:34:30.271Z,25.80
2019-06-26T06:35:38.290Z,25.80
2019-06-26T06:36:45.511Z,25.80
2019-06-26T06:37:53.505Z,25.80
2019-06-26T06:39:00.714Z,25.90
2019-06-26T06:40:10.446Z,25.90
2019-06-26T06:41:17.659Z,25.90
2019-06-26T06:42:25.667Z,26.00
2019-06-26T06:43:32.859Z,26.00
2019-06-26T06:44:40.883Z,26.00
2019-06-26T06:45:48.108Z,26.00
2019-06-26T06:47:03.860Z,26.10
2019-06-26T06:48:05.062Z,26.10
2019-06-26T06:49:13.074Z,26.10
2019-06-26T06:50:21.584Z,26.20
2019-06-26T06:51:29.607Z,26.20
2019-06-26T06:52:36.862Z,26.20
2019-06-26T06:53:44.884Z,26.20
2019-06-26T06:54:52.094Z,26.30
2019-06-26T06:56:00.071Z,26.30
2019-06-26T06:57:07.266Z,26.30
2019-06-26T06:58:15.373Z,26.30
2019-06-26T06:59:22.664Z,26.40
2019-06-26T07:00:30.864Z,26.40
2019-06-26T07:01:38.092Z,26.40
2019-06-26T07:02:46.114Z,26.40
2019-06-26T07:03:53.339Z,26.50
2019-06-26T07:05:01.360Z,26.50
2019-06-26T07:06:08.752Z,26.60
2019-06-26T07:07:18.871Z,26.60
2019-06-26T07:08:26.082Z,26.60
2019-06-26T07:09:34.093Z,26.60
2019-06-26T07:10:41.315Z,26.70
2019-06-26T07:11:49.305Z,26.70
2019-06-26T07:12:56.529Z,26.80
2019-06-26T07:14:04.526Z,26.80
2019-06-26T07:15:12.401Z,26.80
2019-06-26T07:16:20.416Z,26.80
2019-06-26T07:17:27.647Z,26.90
2019-06-26T07:18:35.719Z,26.90
2019-06-26T07:19:42.970Z,26.90
2019-06-26T07:20:50.985Z,27.00
2019-06-26T07:21:58.226Z,27.00
2019-06-26T07:23:07.302Z,27.10
2019-06-26T07:24:14.524Z,27.10
2019-06-26T07:25:22.513Z,27.10
2019-06-26T07:26:29.729Z,27.20
2019-06-26T07:27:38.827Z,27.20
2019-06-26T07:28:46.262Z,27.20
2019-06-26T07:29:54.284Z,27.30
2019-06-26T07:31:01.513Z,27.30
2019-06-26T07:32:09.524Z,27.30
2019-06-26T07:33:16.743Z,27.40
2019-06-26T07:34:24.735Z,27.40
2019-06-26T07:35:31.951Z,27.40
2019-06-26T07:36:39.940Z,27.50
2019-06-26T07:37:47.165Z,27.50
2019-06-26T07:38:55.153Z,27.50
2019-06-26T07:40:02.589Z,27.60
2019-06-26T07:41:10.610Z,27.60
2019-06-26T07:42:17.822Z,27.60
2019-06-26T07:43:25.841Z,27.70
2019-06-26T07:44:33.069Z,27.70
2019-06-26T07:45:41.077Z,27.70
2019-06-26T07:46:48.315Z,27.80
2019-06-26T07:47:56.412Z,27.80
2019-06-26T07:49:03.670Z,27.90
2019-06-26T07:50:12.106Z,27.90
2019-06-26T07:51:19.312Z,27.90
2019-06-26T07:52:27.328Z,28.00
2019-06-26T07:53:34.553Z,28.00
2019-06-26T07:54:42.558Z,28.00
2019-06-26T07:55:50.864Z,28.00
2019-06-26T07:56:58.885Z,28.10
2019-06-26T07:58:06.127Z,28.20
2019-06-26T07:59:14.124Z,28.20
2019-06-26T08:00:21.767Z,28.20
2019-06-26T08:01:29.801Z,28.20
2019-06-26T08:02:37.144Z,28.20
2019-06-26T08:03:45.947Z,28.30
2019-06-26T08:04:53.177Z,28.30
2019-06-26T08:06:01.170Z,28.30
2019-06-26T08:07:08.385Z,28.40
2019-06-26T08:08:16.412Z,28.50
2019-06-26T08:09:23.624Z,28.50
2019-06-26T08:10:31.631Z,28.50
2019-06-26T08:11:38.857Z,28.60
2019-06-26T08:12:46.863Z,28.60
2019-06-26T08:13:54.103Z,28.60
2019-06-26T08:15:02.127Z,28.60
2019-06-26T08:16:09.801Z,28.70
2019-06-26T08:17:17.791Z,28.70
2019-06-26T08:18:25.133Z,28.80
2019-06-26T08:19:33.225Z,28.80
2019-06-26T08:20:55.118Z,28.80
2019-06-26T08:21:50.335Z,28.90
2019-06-26T08:22:57.577Z,28.90
2019-06-26T08:24:05.585Z,28.90
2019-06-26T08:25:12.906Z,29.00
2019-06-26T08:26:20.913Z,29.00
2019-06-26T08:27:28.137Z,29.00
2019-06-26T08:28:36.159Z,29.10
2019-06-26T08:29:43.384Z,29.10
2019-06-26T08:30:51.407Z,29.10
2019-06-26T08:31:58.603Z,29.20
2019-06-26T08:33:06.731Z,29.20
2019-06-26T08:34:13.924Z,29.20
2019-06-26T08:35:23.699Z,29.30
2019-06-26T08:36:30.941Z,29.30
2019-06-26T08:37:38.934Z,29.30
2019-06-26T08:38:46.218Z,29.40
2019-06-26T08:39:54.254Z,29.40
2019-06-26T08:41:01.483Z,29.40
2019-06-26T08:42:09.516Z,29.40
2019-06-26T08:43:16.727Z,29.50
2019-06-26T08:44:24.791Z,29.50
2019-06-26T08:45:31.992Z,29.60
2019-06-26T08:46:40.031Z,29.50
2019-06-26T08:47:47.299Z,29.60
2019-06-26T08:48:55.328Z,29.60
2019-06-26T08:50:02.948Z,29.70
2019-06-26T08:51:11.226Z,29.70
2019-06-26T08:52:19.145Z,29.70
2019-06-26T08:53:27.150Z,29.80
2019-06-26T08:54:34.362Z,29.80
2019-06-26T08:55:42.366Z,29.80
2019-06-26T08:56:49.617Z,29.90
2019-06-26T08:57:57.617Z,29.90
2019-06-26T08:59:04.881Z,30.00
2019-06-26T09:00:15.114Z,30.00
2019-06-26T09:01:22.554Z,30.00
2019-06-26T09:02:30.555Z,30.00
2019-06-26T09:03:41.799Z,30.00
2019-06-26T09:04:47.795Z,30.10
2019-06-26T09:05:55.060Z,30.10
2019-06-26T09:07:03.089Z,30.20
2019-06-26T09:08:11.485Z,30.20
2019-06-26T09:09:19.609Z,30.20
2019-06-26T09:10:26.853Z,30.20
2019-06-26T09:11:34.858Z,30.30
2019-06-26T09:12:42.083Z,30.30
2019-06-26T09:13:50.179Z,30.40
2019-06-26T09:14:57.391Z,30.40
2019-06-26T09:16:05.411Z,30.40
2019-06-26T09:17:12.788Z,30.50
2019-06-26T09:18:34.823Z,30.50
2019-06-26T09:19:29.730Z,30.60
2019-06-26T09:20:41.836Z,30.60
2019-06-26T09:21:49.060Z,30.70
2019-06-26T09:22:57.223Z,30.70
2019-06-26T09:24:04.575Z,30.70
2019-06-26T09:25:21.499Z,30.70
2019-06-26T09:26:21.818Z,30.80
2019-06-26T09:27:29.828Z,30.90
2019-06-26T09:28:37.077Z,30.90
2019-06-26T09:29:45.042Z,30.90
2019-06-26T09:30:52.253Z,30.90
2019-06-26T09:32:00.250Z,31.00
2019-06-26T09:33:07.482Z,31.00
2019-06-26T09:34:15.493Z,31.00
2019-06-26T09:35:24.157Z,31.10
2019-06-26T09:38:57.963Z,31.10
2019-06-26T09:40:04.860Z,31.20
2019-06-26T09:41:12.859Z,31.20
2019-06-26T09:42:20.122Z,31.20
2019-06-26T09:43:28.106Z,31.30
2019-06-26T09:44:35.348Z,31.30
2019-06-26T09:45:43.446Z,31.30
2019-06-26T09:46:50.779Z,31.30
2019-06-26T09:47:58.795Z,31.30
2019-06-26T09:49:06.038Z,31.30
2019-06-26T09:50:14.239Z,31.40
2019-06-26T09:51:21.480Z,31.40
2019-06-26T09:52:29.511Z,31.50
2019-06-26T09:53:46.516Z,31.50
2019-06-26T09:54:46.357Z,31.50
2019-06-26T09:55:53.549Z,31.50
2019-06-26T09:57:01.554Z,31.60
2019-06-26T09:58:13.030Z,31.60
2019-06-26T09:59:19.635Z,31.70
2019-06-26T10:00:27.552Z,31.70
2019-06-26T10:01:35.558Z,31.70
2019-06-26T10:02:42.755Z,31.80
2019-06-26T10:03:50.794Z,31.80
2019-06-26T10:04:58.027Z,31.90
2019-06-26T10:06:06.039Z,31.90
2019-06-26T10:07:13.279Z,31.90
2019-06-26T10:08:21.464Z,32.00
2019-06-26T10:09:28.677Z,32.10
2019-06-26T10:10:36.651Z,32.10
2019-06-26T10:11:43.849Z,32.20
2019-06-26T10:12:51.873Z,32.20
2019-06-26T10:13:59.084Z,32.20
2019-06-26T10:15:08.061Z,32.30
2019-06-26T10:16:15.271Z,32.30
2019-06-26T10:17:23.291Z,32.30
2019-06-26T10:18:30.507Z,32.50
2019-06-26T10:19:38.574Z,32.40
2019-06-26T10:20:45.810Z,32.50
2019-06-26T10:21:53.833Z,32.60
2019-06-26T10:23:01.042Z,32.60
2019-06-26T10:24:09.081Z,32.60
2019-06-26T10:25:17.630Z,32.70
2019-06-26T10:26:25.616Z,32.70
2019-06-26T10:27:32.842Z,32.70
2019-06-26T10:28:40.835Z,32.70
2019-06-26T10:29:48.058Z,32.80
2019-06-26T10:30:56.052Z,32.90
2019-06-26T10:32:03.275Z,32.90
2019-06-26T10:33:11.269Z,32.90
2019-06-26T10:34:18.479Z,32.90
2019-06-26T10:35:26.492Z,33.00
2019-06-26T10:36:33.679Z,33.00
2019-06-26T10:37:41.688Z,33.00
2019-06-26T10:38:48.896Z,33.10
2019-06-26T10:39:56.889Z,33.10
2019-06-26T10:41:04.131Z,33.20
2019-06-26T10:42:12.139Z,33.30
2019-06-26T10:43:19.360Z,33.30
2019-06-26T10:44:27.354Z,33.30
2019-06-26T10:45:36.236Z,33.40
2019-06-26T10:46:44.443Z,33.40
2019-06-26T10:47:51.663Z,33.50
2019-06-26T10:48:59.677Z,33.50
2019-06-26T10:50:07.639Z,33.50
2019-06-26T10:51:15.659Z,33.60
2019-06-26T10:52:22.901Z,33.70
2019-06-26T10:53:30.917Z,33.70
2019-06-26T10:54:38.335Z,33.70
2019-06-26T10:55:46.350Z,33.80
2019-06-26T10:56:53.782Z,33.80
2019-06-26T10:58:01.886Z,33.90
2019-06-26T10:59:09.109Z,33.90
2019-06-26T11:00:19.436Z,34.00
2019-06-26T11:01:26.622Z,34.00
2019-06-26T11:02:34.630Z,34.10
2019-06-26T11:03:41.856Z,34.10
2019-06-26T11:04:49.877Z,34.20
2019-06-26T11:05:57.119Z,34.20
2019-06-26T11:07:05.125Z,34.30
2019-06-26T11:08:15.579Z,34.30
2019-06-26T11:09:23.584Z,34.30
2019-06-26T11:10:30.957Z,34.40
2019-06-26T11:11:40.013Z,34.50
2019-06-26T11:12:49.061Z,34.50
2019-06-26T11:13:56.884Z,34.60
2019-06-26T11:15:04.442Z,34.60
2019-06-26T11:16:24.880Z,34.70
2019-06-26T11:17:32.106Z,34.80
2019-06-26T11:18:40.097Z,34.80
2019-06-26T11:19:47.338Z,34.90
2019-06-26T11:20:55.333Z,34.90
2019-06-26T11:22:02.554Z,34.90
2019-06-26T11:23:10.597Z,35.00
2019-06-26T11:24:17.832Z,35.00
2019-06-26T11:25:25.867Z,35.10
2019-06-26T11:26:33.079Z,35.10
2019-06-26T11:27:41.074Z,35.20
2019-06-26T11:28:48.300Z,35.20
2019-06-26T11:29:56.305Z,35.30
2019-06-26T11:31:03.549Z,35.40
2019-06-26T11:32:11.599Z,35.40
2019-06-26T11:33:18.809Z,35.50
2019-06-26T11:34:26.814Z,35.50
2019-06-26T11:35:34.115Z,35.60
2019-06-26T11:36:42.123Z,35.70
2019-06-26T11:37:49.346Z,35.80
2019-06-26T11:38:57.355Z,35.80
2019-06-26T11:40:05.814Z,35.80
2019-06-26T11:41:13.830Z,35.90
2019-06-26T11:42:21.523Z,35.90
2019-06-26T11:43:29.535Z,35.90
2019-06-26T11:44:36.725Z,36.00
2019-06-26T11:45:45.040Z,36.10
2019-06-26T11:46:52.256Z,36.10
2019-06-26T11:48:00.278Z,36.20
2019-06-26T11:49:07.486Z,36.20
2019-06-26T11:50:16.304Z,36.30
2019-06-26T11:51:23.515Z,36.40
2019-06-26T11:52:31.522Z,36.50
2019-06-26T11:53:38.745Z,36.50
2019-06-26T11:55:01.378Z,36.60
2019-06-26T11:55:55.657Z,36.60
2019-06-26T11:57:03.697Z,36.70
2019-06-26T11:58:10.920Z,36.70
2019-06-26T11:59:18.941Z,36.80
2019-06-26T12:00:27.821Z,36.80
2019-06-26T12:01:35.861Z,36.90
2019-06-26T12:02:43.035Z,36.90
2019-06-26T12:03:51.040Z,37.00
2019-06-26T12:04:58.255Z,37.00
2019-06-26T12:06:17.750Z,37.10
2019-06-26T12:07:15.388Z,37.10
2019-06-26T12:08:23.405Z,37.20
2019-06-26T12:09:30.696Z,37.20
2019-06-26T12:10:38.720Z,37.30
2019-06-26T12:11:45.920Z,37.30
2019-06-26T12:12:53.919Z,37.40
2019-06-26T12:14:01.129Z,37.40
2019-06-26T12:15:10.095Z,37.50
2019-06-26T12:16:17.336Z,37.50
2019-06-26T12:17:25.342Z,37.60
2019-06-26T12:18:32.555Z,37.60
2019-06-26T12:19:40.544Z,37.60
2019-06-26T12:20:47.802Z,37.70
2019-06-26T12:21:55.828Z,37.70
2019-06-26T12:23:03.037Z,37.70
2019-06-26T12:24:11.041Z,37.70
2019-06-26T12:25:18.264Z,37.80
2019-06-26T12:26:26.288Z,37.80
2019-06-26T12:27:33.541Z,37.80
2019-06-26T12:28:41.563Z,37.90
2019-06-26T12:29:49.838Z,37.80
2019-06-26T12:30:57.842Z,37.80
2019-06-26T12:32:05.132Z,37.80
2019-06-26T12:33:13.152Z,37.80
2019-06-26T12:34:20.378Z,37.90
2019-06-26T12:35:28.374Z,37.90
2019-06-26T12:36:35.609Z,38.00
2019-06-26T12:37:43.593Z,38.00
2019-06-26T12:38:50.956Z,38.00
2019-06-26T12:39:59.058Z,38.10
2019-06-26T12:41:06.273Z,38.10
2019-06-26T12:42:14.266Z,38.20
2019-06-26T12:43:21.521Z,38.20
2019-06-26T12:44:29.497Z,38.20
2019-06-26T12:45:36.718Z,38.30
2019-06-26T12:46:44.708Z,38.30
2019-06-26T12:47:51.951Z,38.30
2019-06-26T12:48:59.986Z,38.30
2019-06-26T12:50:08.352Z,38.30
2019-06-26T12:51:16.359Z,38.30
2019-06-26T12:52:24.653Z,38.30
2019-06-26T12:53:32.715Z,38.30
2019-06-26T12:54:39.962Z,38.30
2019-06-26T12:55:47.963Z,38.30
2019-06-26T12:56:55.203Z,38.40
2019-06-26T12:58:13.642Z,38.40
2019-06-26T12:59:12.136Z,38.40
2019-06-26T13:00:20.546Z,38.40
2019-06-26T13:01:27.739Z,38.40
2019-06-26T13:02:36.839Z,38.50
2019-06-26T13:03:44.064Z,38.50
2019-06-26T13:04:52.059Z,38.50
2019-06-26T13:05:59.284Z,38.60
2019-06-26T13:07:07.292Z,38.60
2019-06-26T13:08:14.529Z,38.70
2019-06-26T13:09:22.540Z,38.80
2019-06-26T13:10:29.973Z,38.80
2019-06-26T13:11:38.051Z,38.80
2019-06-26T13:12:46.047Z,38.80
2019-06-26T13:14:02.674Z,38.90
2019-06-26T13:15:03.149Z,38.90
2019-06-26T13:16:11.224Z,39.00
2019-06-26T13:17:18.414Z,39.00
2019-06-26T13:18:26.418Z,39.00
2019-06-26T13:19:34.818Z,39.00
2019-06-26T13:20:52.636Z,39.00
2019-06-26T13:21:51.729Z,39.00
2019-06-26T13:22:59.732Z,39.10
2019-06-26T13:24:06.953Z,39.10
2019-06-26T13:25:17.335Z,39.10
2019-06-26T13:26:24.575Z,39.10
2019-06-26T13:27:32.582Z,39.20
2019-06-26T13:28:39.793Z,39.20
2019-06-26T13:29:47.788Z,39.20
2019-06-26T13:30:54.995Z,39.20
2019-06-26T13:32:02.986Z,39.20
2019-06-26T13:33:10.197Z,39.30
2019-06-26T13:34:18.207Z,39.30
2019-06-26T13:35:25.417Z,39.30
2019-06-26T13:36:33.409Z,39.30
2019-06-26T13:37:40.601Z,39.40
2019-06-26T13:38:48.626Z,39.40
2019-06-26T13:39:55.836Z,39.40
2019-06-26T13:41:03.838Z,39.40
2019-06-26T13:42:11.064Z,39.40
2019-06-26T13:43:19.240Z,39.50
2019-06-26T13:44:26.462Z,39.50
2019-06-26T13:45:34.455Z,39.50
2019-06-26T13:46:41.697Z,39.50
2019-06-26T13:47:50.669Z,39.60
2019-06-26T13:48:57.947Z,39.60
2019-06-26T13:50:06.106Z,39.60
2019-06-26T13:51:13.344Z,39.60
2019-06-26T13:52:21.373Z,39.60
2019-06-26T13:53:28.591Z,39.60
2019-06-26T13:54:36.609Z,39.70
2019-06-26T13:55:44.122Z,39.70
2019-06-26T13:58:03.168Z,39.70
2019-06-26T13:59:10.379Z,39.70
2019-06-26T14:00:18.970Z,39.70
2019-06-26T14:01:26.193Z,39.70
2019-06-26T14:02:34.185Z,39.80
2019-06-26T14:03:41.402Z,39.80
2019-06-26T14:04:49.405Z,39.70
2019-06-26T14:05:56.642Z,39.70
2019-06-26T14:07:04.608Z,39.70
2019-06-26T14:08:11.838Z,39.70
2019-06-26T14:09:19.820Z,39.70
2019-06-26T14:10:27.028Z,39.70
2019-06-26T14:11:35.009Z,39.80
2019-06-26T14:12:42.264Z,39.80
2019-06-26T14:13:50.302Z,39.70
2019-06-26T14:14:58.304Z,39.70
2019-06-26T14:16:09.498Z,39.70
2019-06-26T14:17:17.626Z,39.70
2019-06-26T14:18:25.895Z,39.70
2019-06-26T14:19:33.122Z,39.70
2019-06-26T14:20:41.128Z,39.70
2019-06-26T14:21:48.466Z,39.70
2019-06-26T14:22:59.050Z,39.70
2019-06-26T14:24:08.164Z,39.70
2019-06-26T14:25:16.785Z,39.80
2019-06-26T14:26:24.129Z,39.80
2019-06-26T14:27:38.772Z,39.80
2019-06-26T14:28:44.807Z,39.80
2019-06-26T14:29:52.815Z,39.90
2019-06-26T14:31:00.060Z,39.90
2019-06-26T14:32:08.060Z,39.90
2019-06-26T14:33:15.668Z,40.00
2019-06-26T14:34:27.814Z,40.00
2019-06-26T14:35:33.722Z,40.00
2019-06-26T14:36:41.725Z,40.00
2019-06-26T14:37:48.961Z,40.00
2019-06-26T14:38:56.983Z,40.00
2019-06-26T14:40:04.603Z,40.00
2019-06-26T14:41:12.621Z,40.00